createdAt,value
2017-01-29T00:00:28.122Z,-3.92
2017-01-29T00:01:28.105Z,-3.95
2017-01-29T00:02:28.089Z,-3.94
2017-01-29T00:03:28.061Z,-4.01
2017-01-29T00:04:28.036Z,-4.02
2017-01-29T00:05:28.023Z,-3.97
2017-01-29T00:06:28.003Z,-3.98
2017-01-29T00:07:27.975Z,-4.04
2017-01-29T00:08:27.968Z,-4.09
2017-01-29T00:09:27.945Z,-4.12
2017-01-29T00:10:27.912Z,-4.07
2017-01-29T00:11:27.914Z,-4.16
2017-01-29T00:12:27.888Z,-4.2
2017-01-29T00:13:27.845Z,-4.17
2017-01-29T00:14:27.845Z,-4.17
2017-01-29T00:15:27.814Z,-4.2
2017-01-29T00:16:27.793Z,-4.17
2017-01-29T00:17:27.761Z,-4.19
2017-01-29T00:18:27.736Z,-4.16
2017-01-29T00:19:27.719Z,-4.16
2017-01-29T00:20:27.708Z,-4.17
2017-01-29T00:21:27.697Z,-4.31
2017-01-29T00:22:27.683Z,-4.23
2017-01-29T00:23:27.639Z,-4.2
2017-01-29T00:24:27.634Z,-4.17
2017-01-29T00:25:27.611Z,-4.13
2017-01-29T00:26:27.585Z,-4.15
2017-01-29T00:27:27.574Z,-4.16
2017-01-29T00:28:27.551Z,-4.1
2017-01-29T00:29:27.535Z,-4.09
2017-01-29T00:30:27.510Z,-4.19
2017-01-29T00:31:27.500Z,-4.27
2017-01-29T00:32:27.453Z,-4.17
2017-01-29T00:33:27.061Z,-4.16
2017-01-29T00:34:27.423Z,-4.04
2017-01-29T00:35:27.402Z,-3.83
2017-01-29T00:36:27.393Z,-3.84
2017-01-29T00:37:27.374Z,-3.68
2017-01-29T00:38:27.333Z,-3.58
2017-01-29T00:39:27.316Z,-3.54
2017-01-29T00:40:27.300Z,-3.58
2017-01-29T00:41:27.278Z,-3.59
2017-01-29T00:42:27.250Z,-3.54
2017-01-29T00:43:27.243Z,-3.54
2017-01-29T00:44:27.221Z,-3.57
2017-01-29T00:45:27.201Z,-3.57
2017-01-29T00:46:27.183Z,-3.62
2017-01-29T00:47:27.152Z,-3.52
2017-01-29T00:48:27.133Z,-3.55
2017-01-29T00:49:27.133Z,-3.54
2017-01-29T00:50:27.099Z,-3.57
2017-01-29T00:51:27.080Z,-3.58
2017-01-29T00:52:27.065Z,-3.65
2017-01-29T00:53:27.043Z,-3.59
2017-01-29T00:54:27.023Z,-3.59
2017-01-29T00:55:27.014Z,-3.69
2017-01-29T00:56:26.981Z,-3.69
2017-01-29T00:57:26.977Z,-3.69
2017-01-29T00:58:26.940Z,-3.72
2017-01-29T00:59:26.923Z,-3.76
2017-01-29T01:00:26.905Z,-3.72
2017-01-29T01:01:26.886Z,-3.68
2017-01-29T01:02:26.865Z,-3.69
2017-01-29T01:03:26.844Z,-3.61
2017-01-29T01:04:26.822Z,-3.59
2017-01-29T01:05:26.814Z,-3.58
2017-01-29T01:06:26.781Z,-3.61
2017-01-29T01:07:26.768Z,-3.59
2017-01-29T01:08:26.743Z,-3.55
2017-01-29T01:09:26.715Z,-3.61
2017-01-29T01:10:26.696Z,-3.61
2017-01-29T01:11:26.680Z,-3.54
2017-01-29T01:12:26.667Z,-3.59
2017-01-29T01:13:26.648Z,-3.61
2017-01-29T01:14:26.625Z,-3.62
2017-01-29T01:15:26.607Z,-3.68
2017-01-29T01:16:26.589Z,-3.7
2017-01-29T01:17:26.558Z,-3.94
2017-01-29T01:18:26.542Z,-3.98
2017-01-29T01:19:26.537Z,-4.15
2017-01-29T01:20:26.519Z,-4.26
2017-01-29T01:21:26.490Z,-4.38
2017-01-29T01:22:26.465Z,-4.33
2017-01-29T01:23:26.466Z,-4.37
2017-01-29T01:24:26.435Z,-4.41
2017-01-29T01:25:26.416Z,-4.4
2017-01-29T01:26:26.402Z,-4.38
2017-01-29T01:27:26.380Z,-4.45
2017-01-29T01:28:26.372Z,-4.52
2017-01-29T01:29:26.368Z,-4.65
2017-01-29T01:30:26.315Z,-4.67
2017-01-29T01:31:26.300Z,-4.74
2017-01-29T01:32:26.289Z,-4.65
2017-01-29T01:33:26.266Z,-4.81
2017-01-29T01:34:26.236Z,-4.74
2017-01-29T01:35:26.227Z,-4.62
2017-01-29T01:36:26.214Z,-4.62
2017-01-29T01:37:26.183Z,-4.54
2017-01-29T01:38:26.175Z,-4.55
2017-01-29T01:39:26.156Z,-4.45
2017-01-29T01:40:26.142Z,-4.46
2017-01-29T01:41:26.109Z,-4.48
2017-01-29T01:42:26.110Z,-4.51
2017-01-29T01:43:26.078Z,-4.51
2017-01-29T01:44:26.056Z,-4.59
2017-01-29T01:45:26.040Z,-4.74
2017-01-29T01:46:26.031Z,-4.76
2017-01-29T01:47:26.000Z,-4.69
2017-01-29T01:48:25.970Z,-4.59
2017-01-29T01:49:25.966Z,-4.56
2017-01-29T01:50:25.943Z,-4.51
2017-01-29T01:51:25.936Z,-4.41
2017-01-29T01:52:25.911Z,-4.46
2017-01-29T01:53:25.877Z,-4.31
2017-01-29T01:54:25.858Z,-4.4
2017-01-29T01:55:25.843Z,-4.45
2017-01-29T01:56:25.835Z,-4.55
2017-01-29T01:57:25.813Z,-4.51
2017-01-29T01:58:25.800Z,-4.56
2017-01-29T01:59:25.766Z,-4.56
2017-01-29T02:00:25.755Z,-4.52
2017-01-29T02:01:25.738Z,-4.54
2017-01-29T02:02:25.723Z,-4.4
2017-01-29T02:03:25.689Z,-4.34
2017-01-29T02:04:25.679Z,-4.27
2017-01-29T02:05:25.660Z,-4.31
2017-01-29T02:06:25.641Z,-4.15
2017-01-29T02:07:25.629Z,-4.2
2017-01-29T02:08:25.603Z,-4.13
2017-01-29T02:09:25.581Z,-4.19
2017-01-29T02:10:25.571Z,-4.09
2017-01-29T02:11:25.556Z,-4.01
2017-01-29T02:12:25.527Z,-3.91
2017-01-29T02:13:25.516Z,-4.02
2017-01-29T02:14:25.481Z,-3.95
2017-01-29T02:15:25.482Z,-4.01
2017-01-29T02:16:25.463Z,-4.26
2017-01-29T02:17:25.432Z,-4.36
2017-01-29T02:18:25.402Z,-4.56
2017-01-29T02:19:25.402Z,-4.76
2017-01-29T02:20:25.392Z,-4.9
2017-01-29T02:21:25.362Z,-4.74
2017-01-29T02:22:25.337Z,-4.87
2017-01-29T02:23:24.932Z,-4.88
2017-01-29T02:24:25.293Z,-4.79
2017-01-29T02:25:25.290Z,-4.73
2017-01-29T02:26:25.261Z,-4.67
2017-01-29T02:27:25.240Z,-4.58
2017-01-29T02:28:25.227Z,-4.45
2017-01-29T02:29:25.210Z,-4.46
2017-01-29T02:30:25.189Z,-4.38
2017-01-29T02:31:25.168Z,-4.59
2017-01-29T02:32:25.144Z,-4.66
2017-01-29T02:33:25.134Z,-4.66
2017-01-29T02:34:25.121Z,-4.76
2017-01-29T02:35:25.087Z,-4.76
2017-01-29T02:36:25.083Z,-4.76
2017-01-29T02:37:25.047Z,-4.74
2017-01-29T02:38:25.048Z,-4.69
2017-01-29T02:39:25.033Z,-4.56
2017-01-29T02:40:24.999Z,-4.37
2017-01-29T02:41:24.977Z,-4.1
2017-01-29T02:42:24.965Z,-3.88
2017-01-29T02:43:24.935Z,-4.1
2017-01-29T02:44:24.934Z,-4.31
2017-01-29T02:45:24.909Z,-4.51
2017-01-29T02:46:24.887Z,-4.77
2017-01-29T02:47:24.884Z,-4.79
2017-01-29T02:48:24.844Z,-5.06
2017-01-29T02:49:24.835Z,-5.08
2017-01-29T02:50:24.813Z,-5.2
2017-01-29T02:51:24.796Z,-5.13
2017-01-29T02:52:24.777Z,-5.23
2017-01-29T02:53:24.770Z,-5.28
2017-01-29T02:54:24.739Z,-5.34
2017-01-29T02:55:24.718Z,-5.27
2017-01-29T02:56:24.699Z,-5.34
2017-01-29T02:57:24.668Z,-5.28
2017-01-29T02:58:24.668Z,-5.38
2017-01-29T02:59:24.653Z,-5.28
2017-01-29T03:00:24.619Z,-5.27
2017-01-29T03:01:24.613Z,-5.27
2017-01-29T03:02:24.593Z,-5.28
2017-01-29T03:03:24.564Z,-5.3
2017-01-29T03:04:24.539Z,-5.3
2017-01-29T03:05:24.524Z,-5.34
2017-01-29T03:06:24.521Z,-5.38
2017-01-29T03:07:24.481Z,-5.38
2017-01-29T03:08:24.480Z,-5.45
2017-01-29T03:09:24.459Z,-5.48
2017-01-29T03:10:24.441Z,-5.34
2017-01-29T03:11:24.407Z,-5.35
2017-01-29T03:12:24.387Z,-5.42
2017-01-29T03:13:24.381Z,-5.38
2017-01-29T03:14:24.342Z,-5.34
2017-01-29T03:15:24.328Z,-5.38
2017-01-29T03:16:24.316Z,-5.2
2017-01-29T03:17:24.286Z,-5.24
2017-01-29T03:18:24.265Z,-5.2
2017-01-29T03:19:24.251Z,-5.17
2017-01-29T03:20:24.242Z,-5.2
2017-01-29T03:21:24.203Z,-5.21
2017-01-29T03:22:24.203Z,-5.27
2017-01-29T03:23:24.180Z,-5.27
2017-01-29T03:24:24.162Z,-5.13
2017-01-29T03:25:24.136Z,-5.13
2017-01-29T03:26:24.124Z,-5.11
2017-01-29T03:27:24.106Z,-5.11
2017-01-29T03:28:24.084Z,-4.94
2017-01-29T03:29:24.054Z,-4.9
2017-01-29T03:30:24.042Z,-4.93
2017-01-29T03:31:24.025Z,-4.94
2017-01-29T03:32:23.996Z,-4.81
2017-01-29T03:33:23.963Z,-4.88
2017-01-29T03:34:24.151Z,-4.91
2017-01-29T03:35:23.169Z,-4.9
2017-01-29T03:36:23.916Z,-4.94
2017-01-29T03:37:23.896Z,-5.05
2017-01-29T03:38:23.877Z,-5.03
2017-01-29T03:39:23.867Z,-5.13
2017-01-29T03:40:23.850Z,-5.25
2017-01-29T03:41:23.813Z,-5.31
2017-01-29T03:42:23.805Z,-5.39
2017-01-29T03:43:23.778Z,-5.34
2017-01-29T03:44:23.754Z,-5.35
2017-01-29T03:45:23.942Z,-5.41
2017-01-29T03:46:23.730Z,-5.35
2017-01-29T03:47:23.716Z,-5.31
2017-01-29T03:48:23.688Z,-5.27
2017-01-29T03:49:23.671Z,-5.16
2017-01-29T03:50:23.631Z,-5.17
2017-01-29T03:51:23.620Z,-5.23
2017-01-29T03:52:23.625Z,-5.12
2017-01-29T03:53:23.586Z,-5.16
2017-01-29T03:54:23.574Z,-4.94
2017-01-29T03:55:23.541Z,-4.74
2017-01-29T03:56:23.526Z,-4.76
2017-01-29T03:57:23.495Z,-4.56
2017-01-29T03:58:23.493Z,-4.66
2017-01-29T03:59:23.472Z,-4.88
2017-01-29T04:00:23.448Z,-4.88
2017-01-29T04:01:23.421Z,-4.95
2017-01-29T04:02:23.417Z,-4.93
2017-01-29T04:03:23.391Z,-5.03
2017-01-29T04:04:23.367Z,-5.09
2017-01-29T04:05:23.365Z,-5.11
2017-01-29T04:06:23.342Z,-5.12
2017-01-29T04:07:23.533Z,-5.12
2017-01-29T04:08:23.293Z,-5.12
2017-01-29T04:09:23.270Z,-5.21
2017-01-29T04:10:23.246Z,-5.12
2017-01-29T04:11:23.240Z,-5.05
2017-01-29T04:12:23.209Z,-5.13
2017-01-29T04:13:23.402Z,-5.12
2017-01-29T04:14:23.171Z,-5.21
2017-01-29T04:15:23.167Z,-5.16
2017-01-29T04:16:23.140Z,-5.06
2017-01-29T04:17:23.113Z,-5.03
2017-01-29T04:18:23.113Z,-5.02
2017-01-29T04:19:23.291Z,-5.02
2017-01-29T04:20:23.053Z,-4.9
2017-01-29T04:21:23.053Z,-4.94
2017-01-29T04:22:23.023Z,-4.87
2017-01-29T04:23:23.016Z,-4.87
2017-01-29T04:24:22.989Z,-4.9
2017-01-29T04:25:22.965Z,-4.99
2017-01-29T04:26:22.956Z,-5.01
2017-01-29T04:27:22.562Z,-4.95
2017-01-29T04:28:22.913Z,-4.94
2017-01-29T04:29:22.884Z,-4.99
2017-01-29T04:30:22.871Z,-4.87
2017-01-29T04:31:22.854Z,-4.88
2017-01-29T04:32:22.841Z,-4.87
2017-01-29T04:33:22.814Z,-4.93
2017-01-29T04:34:22.805Z,-4.95
2017-01-29T04:35:22.766Z,-5.02
2017-01-29T04:36:22.762Z,-5.03
2017-01-29T04:37:22.747Z,-5.21
2017-01-29T04:38:22.713Z,-5.21
2017-01-29T04:39:22.712Z,-5.2
2017-01-29T04:40:22.685Z,-5.11
2017-01-29T04:41:36.034Z,-5.12
2017-01-29T04:42:22.643Z,-5.16
2017-01-29T04:43:22.636Z,-5.05
2017-01-29T04:44:22.602Z,-5.11
2017-01-29T04:45:22.583Z,-5.06
2017-01-29T04:46:22.764Z,-4.94
2017-01-29T04:47:22.755Z,-4.87
2017-01-29T04:48:22.538Z,-4.74
2017-01-29T04:49:22.502Z,-4.84
2017-01-29T04:50:22.486Z,-4.72
2017-01-29T04:51:22.468Z,-4.76
2017-01-29T04:52:22.435Z,-4.74
2017-01-29T04:53:22.439Z,-4.66
2017-01-29T04:54:22.416Z,-4.67
2017-01-29T04:55:22.398Z,-4.67
2017-01-29T04:56:22.401Z,-4.74
2017-01-29T04:57:22.366Z,-4.63
2017-01-29T04:58:22.338Z,-4.56
2017-01-29T04:59:22.315Z,-4.74
2017-01-29T05:00:22.283Z,-4.93
2017-01-29T05:01:22.274Z,-5.02
2017-01-29T05:02:22.264Z,-5.12
2017-01-29T05:03:22.267Z,-5.12
2017-01-29T05:04:22.232Z,-5.02
2017-01-29T05:05:22.196Z,-5.06
2017-01-29T05:06:22.174Z,-5.09
2017-01-29T05:07:22.175Z,-5.08
2017-01-29T05:08:22.148Z,-5.02
2017-01-29T05:09:22.114Z,-4.94
2017-01-29T05:10:22.089Z,-4.84
2017-01-29T05:11:21.694Z,-4.77
2017-01-29T05:12:22.061Z,-4.87
2017-01-29T05:13:22.043Z,-4.93
2017-01-29T05:14:22.012Z,-5.08
2017-01-29T05:15:21.999Z,-5.2
2017-01-29T05:16:21.978Z,-5.24
2017-01-29T05:17:21.961Z,-5.27
2017-01-29T05:18:21.957Z,-5.25
2017-01-29T05:19:21.938Z,-5.27
2017-01-29T05:20:21.914Z,-5.3
2017-01-29T05:21:21.878Z,-5.34
2017-01-29T05:22:21.878Z,-5.39
2017-01-29T05:23:21.852Z,-5.31
2017-01-29T05:24:21.829Z,-5.13
2017-01-29T05:25:22.023Z,-5.2
2017-01-29T05:26:21.413Z,-5.21
2017-01-29T05:27:21.781Z,-5.17
2017-01-29T05:28:21.763Z,-5.25
2017-01-29T05:29:21.736Z,-5.33
2017-01-29T05:30:21.714Z,-5.48
2017-01-29T05:31:21.695Z,-5.45
2017-01-29T05:32:21.666Z,-5.55
2017-01-29T05:33:21.652Z,-5.52
2017-01-29T05:34:21.636Z,-5.6
2017-01-29T05:35:21.622Z,-5.63
2017-01-29T05:36:21.597Z,-5.73
2017-01-29T05:37:21.577Z,-5.7
2017-01-29T05:38:21.555Z,-5.69
2017-01-29T05:39:21.538Z,-5.73
2017-01-29T05:40:21.522Z,-5.75
2017-01-29T05:41:21.509Z,-5.75
2017-01-29T05:42:21.478Z,-5.78
2017-01-29T05:43:21.456Z,-5.7
2017-01-29T05:44:21.425Z,-5.7
2017-01-29T05:45:21.432Z,-5.64
2017-01-29T05:46:21.406Z,-5.81
2017-01-29T05:47:21.402Z,-5.81
2017-01-29T05:48:20.975Z,-5.78
2017-01-29T05:49:21.330Z,-5.88
2017-01-29T05:50:21.327Z,-5.81
2017-01-29T05:51:21.293Z,-5.66
2017-01-29T05:52:21.283Z,-5.71
2017-01-29T05:53:21.472Z,-5.88
2017-01-29T05:54:21.239Z,-5.8
2017-01-29T05:55:21.207Z,-5.96
2017-01-29T05:56:21.196Z,-5.96
2017-01-29T05:57:21.175Z,-6.03
2017-01-29T05:58:21.155Z,-6.02
2017-01-29T05:59:21.349Z,-6.03
2017-01-29T06:00:21.113Z,-6.09
2017-01-29T06:01:21.100Z,-6.14
2017-01-29T06:02:21.094Z,-6.26
2017-01-29T06:03:21.044Z,-6.24
2017-01-29T06:04:21.040Z,-6.32
2017-01-29T06:05:21.017Z,-6.35
2017-01-29T06:06:21.011Z,-6.38
2017-01-29T06:07:20.975Z,-6.42
2017-01-29T06:08:20.967Z,-6.39
2017-01-29T06:09:20.926Z,-6.37
2017-01-29T06:10:20.904Z,-6.31
2017-01-29T06:11:20.880Z,-6.32
2017-01-29T06:12:20.482Z,-6.27
2017-01-29T06:13:20.852Z,-6.31
2017-01-29T06:14:20.832Z,-6.24
2017-01-29T06:15:20.809Z,-6.2
2017-01-29T06:16:20.778Z,-6.21
2017-01-29T06:17:20.757Z,-6.31
2017-01-29T06:18:20.752Z,-6.24
2017-01-29T06:19:20.737Z,-6.17
2017-01-29T06:20:20.697Z,-6.31
2017-01-29T06:21:20.687Z,-6.31
2017-01-29T06:22:20.664Z,-6.32
2017-01-29T06:23:20.647Z,-6.23
2017-01-29T06:24:20.614Z,-6.26
2017-01-29T06:25:20.591Z,-6.14
2017-01-29T06:26:20.591Z,-6.17
2017-01-29T06:27:20.561Z,-6.17
2017-01-29T06:28:20.539Z,-6.1
2017-01-29T06:29:20.510Z,-6.2
2017-01-29T06:30:20.520Z,-6.2
2017-01-29T06:31:20.472Z,-6.02
2017-01-29T06:32:20.454Z,-5.91
2017-01-29T06:33:20.448Z,-5.69
2017-01-29T06:34:20.416Z,-5.64
2017-01-29T06:35:20.392Z,-5.53
2017-01-29T06:36:20.372Z,-5.63
2017-01-29T06:37:20.355Z,-5.63
2017-01-29T06:38:20.329Z,-5.52
2017-01-29T06:39:20.320Z,-5.64
2017-01-29T06:40:20.286Z,-5.55
2017-01-29T06:41:20.264Z,-5.59
2017-01-29T06:42:20.254Z,-5.62
2017-01-29T06:43:20.228Z,-5.53
2017-01-29T06:44:20.207Z,-5.64
2017-01-29T06:45:20.191Z,-5.62
2017-01-29T06:46:20.172Z,-5.51
2017-01-29T06:47:20.151Z,-5.62
2017-01-29T06:48:20.128Z,-5.46
2017-01-29T06:49:20.101Z,-5.41
2017-01-29T06:50:20.081Z,-5.28
2017-01-29T06:51:20.056Z,-5.23
2017-01-29T06:52:20.049Z,-5.08
2017-01-29T06:53:20.029Z,-5.08
2017-01-29T06:54:20.016Z,-4.94
2017-01-29T06:55:19.975Z,-4.85
2017-01-29T06:56:19.954Z,-4.76
2017-01-29T06:57:19.930Z,-4.81
2017-01-29T06:58:19.930Z,-4.76
2017-01-29T06:59:19.901Z,-4.55
2017-01-29T07:00:19.889Z,-4.46
2017-01-29T07:01:19.869Z,-4.27
2017-01-29T07:02:19.848Z,-4.12
2017-01-29T07:03:19.815Z,-4.02
2017-01-29T07:04:19.808Z,-3.99
2017-01-29T07:05:19.769Z,-3.72
2017-01-29T07:06:19.756Z,-3.59
2017-01-29T07:07:19.739Z,-3.36
2017-01-29T07:08:19.752Z,-3.12
2017-01-29T07:09:19.696Z,-2.89
2017-01-29T07:10:19.659Z,-2.8
2017-01-29T07:11:19.656Z,-2.66
2017-01-29T07:12:19.625Z,-2.5
2017-01-29T07:13:19.611Z,-2.21
2017-01-29T07:14:19.598Z,-2.14
2017-01-29T07:15:19.584Z,-2.03
2017-01-29T07:16:19.161Z,-1.93
2017-01-29T07:17:19.546Z,-1.88
2017-01-29T07:18:19.520Z,-1.65
2017-01-29T07:19:19.491Z,-1.67
2017-01-29T07:20:19.484Z,-1.32
2017-01-29T07:21:19.468Z,-1.03
2017-01-29T07:22:19.451Z,-0.68
2017-01-29T07:23:19.429Z,-0.39
2017-01-29T07:24:19.408Z,-0.37
2017-01-29T07:25:19.396Z,-0.34
2017-01-29T07:26:19.385Z,-0.12
2017-01-29T07:27:19.356Z,-0.09
2017-01-29T07:28:19.358Z,0.04
2017-01-29T07:29:19.335Z,-0.31
2017-01-29T07:30:19.339Z,-0.16
2017-01-29T07:31:19.284Z,0.08
2017-01-29T07:32:19.289Z,0.08
2017-01-29T07:33:19.273Z,0.25
2017-01-29T07:34:19.251Z,0.16
2017-01-29T07:35:19.237Z,0.15
2017-01-29T07:36:19.230Z,0.08
2017-01-29T07:37:19.200Z,0.13
2017-01-29T07:38:19.177Z,0.23
2017-01-29T07:39:19.173Z,0.48
2017-01-29T07:40:19.146Z,0.81
2017-01-29T07:41:19.137Z,0.93
2017-01-29T07:42:19.103Z,1.16
2017-01-29T07:43:19.088Z,1.35
2017-01-29T07:44:19.068Z,1.68
2017-01-29T07:45:19.052Z,1.93
2017-01-29T07:46:19.032Z,2.22
2017-01-29T07:47:19.032Z,2.43
2017-01-29T07:48:19.017Z,2.38
2017-01-29T07:49:19.006Z,2.51
2017-01-29T07:50:18.987Z,2.71
2017-01-29T07:51:18.977Z,2.87
2017-01-29T07:52:18.954Z,2.76
2017-01-29T07:53:18.561Z,2.97
2017-01-29T07:54:18.924Z,3.23
2017-01-29T07:55:18.901Z,3.23
2017-01-29T07:56:18.887Z,3.28
2017-01-29T07:57:18.885Z,3.46
2017-01-29T07:58:18.866Z,3.35
2017-01-29T07:59:18.858Z,3.3
2017-01-29T08:00:18.836Z,3.39
2017-01-29T08:01:18.822Z,3.46
2017-01-29T08:02:18.813Z,3.6
2017-01-29T08:03:18.791Z,3.99
2017-01-29T08:04:18.791Z,4.04
2017-01-29T08:05:18.767Z,4.29
2017-01-29T08:06:18.759Z,4.35
2017-01-29T08:07:18.750Z,4.67
2017-01-29T08:08:18.718Z,4.83
2017-01-29T08:09:18.314Z,4.72
2017-01-29T08:10:18.695Z,4.65
2017-01-29T08:11:18.681Z,4.28
2017-01-29T08:12:18.667Z,4.07
2017-01-29T08:13:18.655Z,3.92
2017-01-29T08:14:18.654Z,3.26
2017-01-29T08:15:18.640Z,2.9
2017-01-29T08:16:18.611Z,2.69
2017-01-29T08:17:18.602Z,2.45
2017-01-29T08:18:18.580Z,2.53
2017-01-29T08:19:18.581Z,2.69
2017-01-29T08:20:18.557Z,2.89
2017-01-29T08:21:18.159Z,2.97
2017-01-29T08:22:18.528Z,2.98
2017-01-29T08:23:18.123Z,3.2
2017-01-29T08:24:18.512Z,3.26
2017-01-29T08:25:18.499Z,3.3
2017-01-29T08:26:18.488Z,3.46
2017-01-29T08:27:18.463Z,3.67
2017-01-29T08:28:18.474Z,3.92
2017-01-29T08:29:18.434Z,4.13
2017-01-29T08:30:18.417Z,4.53
2017-01-29T08:31:18.400Z,4.93
2017-01-29T08:32:18.385Z,5.17
2017-01-29T08:33:18.406Z,5.19
2017-01-29T08:34:18.356Z,4.77
2017-01-29T08:35:18.353Z,4.31
2017-01-29T08:36:18.345Z,3.35
2017-01-29T08:37:18.316Z,2.8
2017-01-29T08:38:18.318Z,3.23
2017-01-29T08:39:18.336Z,3.77
2017-01-29T08:40:18.277Z,3.98
2017-01-29T08:41:18.270Z,4.07
2017-01-29T08:42:18.314Z,3.15
2017-01-29T08:43:18.242Z,2.84
2017-01-29T08:44:18.238Z,3.33
2017-01-29T08:45:18.212Z,3.39
2017-01-29T08:46:17.824Z,3.67
2017-01-29T08:47:18.186Z,3.62
2017-01-29T08:48:18.174Z,3.63
2017-01-29T08:49:18.170Z,3.75
2017-01-29T08:50:18.160Z,4.13
2017-01-29T08:51:18.142Z,4.24
2017-01-29T08:52:18.131Z,4.28
2017-01-29T08:53:18.129Z,3.95
2017-01-29T08:54:18.094Z,4.02
2017-01-29T08:55:18.089Z,4.26
2017-01-29T08:56:18.074Z,4.34
2017-01-29T08:57:18.066Z,4.38
2017-01-29T08:58:18.063Z,4.44
2017-01-29T08:59:18.054Z,4.16
2017-01-29T09:00:18.027Z,3.7
2017-01-29T09:01:18.024Z,4.14
2017-01-29T09:02:18.006Z,4.11
2017-01-29T09:03:18.027Z,3.96
2017-01-29T09:04:17.970Z,3.9
2017-01-29T09:05:17.570Z,3.41
2017-01-29T09:06:17.957Z,3.2
2017-01-29T09:07:17.932Z,3.15
2017-01-29T09:08:17.526Z,2.99
2017-01-29T09:09:17.905Z,3.04
2017-01-29T09:10:17.506Z,3.23
2017-01-29T09:11:17.494Z,3.7
2017-01-29T09:12:17.483Z,3.99
2017-01-29T09:13:17.461Z,4.11
2017-01-29T09:14:17.830Z,3.67
2017-01-29T09:15:17.826Z,3.39
2017-01-29T09:16:17.805Z,3.13
2017-01-29T09:17:17.411Z,2.97
2017-01-29T09:18:17.801Z,3.25
2017-01-29T09:19:17.388Z,3.2
2017-01-29T09:20:17.774Z,3.57
2017-01-29T09:21:17.376Z,3.42
2017-01-29T09:22:17.726Z,3.41
2017-01-29T09:23:17.733Z,3.42
2017-01-29T09:24:17.321Z,3.41
2017-01-29T09:25:17.707Z,3.56
2017-01-29T09:26:17.694Z,3.56
2017-01-29T09:27:17.676Z,3.53
2017-01-29T09:28:17.655Z,3.64
2017-01-29T09:29:17.638Z,3.71
2017-01-29T09:30:17.631Z,3.41
2017-01-29T09:31:17.616Z,3.54
2017-01-29T09:32:17.216Z,3.54
2017-01-29T09:33:17.609Z,2.99
2017-01-29T09:34:17.188Z,2.79
2017-01-29T09:35:17.565Z,2.95
2017-01-29T09:36:17.562Z,3.08
2017-01-29T09:37:17.157Z,3.26
2017-01-29T09:38:17.518Z,3.37
2017-01-29T09:39:17.528Z,3.64
2017-01-29T09:40:17.506Z,4.11
2017-01-29T09:41:17.491Z,4.18
2017-01-29T09:42:17.476Z,4
2017-01-29T09:43:17.455Z,4.02
2017-01-29T09:44:17.452Z,3.63
2017-01-29T09:45:17.429Z,3.72
2017-01-29T09:46:17.409Z,3.71
2017-01-29T09:47:17.022Z,3.44
2017-01-29T09:48:17.387Z,3.16
2017-01-29T09:49:17.387Z,2.98
2017-01-29T09:50:16.990Z,3.17
2017-01-29T09:51:17.369Z,3.64
2017-01-29T09:52:17.363Z,3.64
2017-01-29T09:53:16.950Z,4.13
2017-01-29T09:54:17.328Z,4.36
2017-01-29T09:55:16.919Z,4.53
2017-01-29T09:56:17.303Z,4.79
2017-01-29T09:57:17.279Z,4.93
2017-01-29T09:58:16.888Z,5.01
2017-01-29T09:59:17.245Z,5.41
2017-01-29T10:00:16.863Z,5.74
2017-01-29T10:01:16.842Z,5.84
2017-01-29T10:02:17.219Z,5.4
2017-01-29T10:03:17.198Z,5.04
2017-01-29T10:04:16.804Z,4.74
2017-01-29T10:05:17.182Z,4.53
2017-01-29T10:06:17.176Z,4.14
2017-01-29T10:07:17.159Z,4.14
2017-01-29T10:08:17.134Z,4.28
2017-01-29T10:09:16.751Z,4.75
2017-01-29T10:10:16.743Z,4.91
2017-01-29T10:11:16.733Z,5.14
2017-01-29T10:12:17.092Z,4.64
2017-01-29T10:13:16.688Z,4.11
2017-01-29T10:14:17.080Z,4.06
2017-01-29T10:15:17.054Z,4.14
2017-01-29T10:16:17.060Z,4.29
2017-01-29T10:17:17.042Z,4.28
2017-01-29T10:18:17.023Z,4.21
2017-01-29T10:19:17.012Z,4.38
2017-01-29T10:20:16.615Z,4.8
2017-01-29T10:21:16.604Z,5.2
2017-01-29T10:22:16.977Z,5.2
2017-01-29T10:23:16.963Z,5.65
2017-01-29T10:24:16.943Z,6.28
2017-01-29T10:25:16.942Z,6.35
2017-01-29T10:26:16.933Z,6.61
2017-01-29T10:27:16.914Z,6.38
2017-01-29T10:28:16.899Z,6.48
2017-01-29T10:29:16.514Z,6.43
2017-01-29T10:30:16.487Z,6.51
2017-01-29T10:31:16.879Z,6.54
2017-01-29T10:32:16.461Z,6.51
2017-01-29T10:33:16.834Z,6.55
2017-01-29T10:34:16.835Z,5.93
2017-01-29T10:35:16.428Z,5.65
2017-01-29T10:36:16.819Z,5.41
2017-01-29T10:37:16.406Z,5.52
2017-01-29T10:38:16.399Z,5.87
2017-01-29T10:39:16.791Z,5.99
2017-01-29T10:40:16.765Z,5.98
2017-01-29T10:41:16.365Z,5.63
2017-01-29T10:42:16.751Z,5.63
2017-01-29T10:43:16.769Z,5.7
2017-01-29T10:44:16.736Z,5.67
2017-01-29T10:45:16.717Z,5.84
2017-01-29T10:46:16.696Z,6.17
2017-01-29T10:47:16.685Z,6.17
2017-01-29T10:48:16.282Z,6.24
2017-01-29T10:49:16.662Z,6.35
2017-01-29T10:50:16.662Z,6.36
2017-01-29T10:51:16.635Z,6.01
2017-01-29T10:52:16.620Z,5.62
2017-01-29T10:53:16.217Z,5.04
2017-01-29T10:54:16.616Z,4.8
2017-01-29T10:55:16.206Z,4.51
2017-01-29T10:56:16.194Z,4.75
2017-01-29T10:57:16.570Z,4.68
2017-01-29T10:58:16.565Z,4.75
2017-01-29T10:59:16.148Z,4.96
2017-01-29T11:00:16.544Z,4.75
2017-01-29T11:01:16.140Z,4.64
2017-01-29T11:02:16.511Z,5.01
2017-01-29T11:03:16.499Z,5.73
2017-01-29T11:04:16.487Z,5.93
2017-01-29T11:05:16.463Z,6.1
2017-01-29T11:06:16.490Z,6.27
2017-01-29T11:07:16.463Z,6.13
2017-01-29T11:08:16.051Z,6.11
2017-01-29T11:09:16.436Z,6.05
2017-01-29T11:10:16.417Z,6.08
2017-01-29T11:11:16.417Z,6.2
2017-01-29T11:12:16.406Z,6.36
2017-01-29T11:13:16.371Z,6.5
2017-01-29T11:14:16.361Z,6.55
2017-01-29T11:15:16.392Z,6.2
2017-01-29T11:16:15.973Z,6.16
2017-01-29T11:17:16.335Z,6.19
2017-01-29T11:18:16.313Z,5.83
2017-01-29T11:19:15.930Z,5.74
2017-01-29T11:20:16.310Z,5.62
2017-01-29T11:21:16.307Z,5.56
2017-01-29T11:22:16.274Z,5.4
2017-01-29T11:23:16.253Z,5.44
2017-01-29T11:24:15.875Z,5.45
2017-01-29T11:25:16.239Z,5.56
2017-01-29T11:26:16.217Z,5.58
2017-01-29T11:27:16.224Z,5.37
2017-01-29T11:28:16.191Z,5.05
2017-01-29T11:29:16.189Z,5.12
2017-01-29T11:30:15.785Z,5.29
2017-01-29T11:31:16.169Z,5.33
2017-01-29T11:32:16.156Z,5.48
2017-01-29T11:33:16.155Z,5.58
2017-01-29T11:34:16.139Z,5.51
2017-01-29T11:35:16.119Z,5.56
2017-01-29T11:36:16.113Z,5.65
2017-01-29T11:37:15.703Z,5.55
2017-01-29T11:38:16.080Z,5.27
2017-01-29T11:39:16.072Z,5.12
2017-01-29T11:40:16.046Z,5.04
2017-01-29T11:41:16.048Z,5.17
2017-01-29T11:42:16.032Z,5.2
2017-01-29T11:43:16.021Z,5.23
2017-01-29T11:44:16.004Z,5.47
2017-01-29T11:45:16.002Z,5.44
2017-01-29T11:46:15.972Z,5.41
2017-01-29T11:47:15.959Z,5.4
2017-01-29T11:48:15.959Z,5.47
2017-01-29T11:49:15.956Z,5.49
2017-01-29T11:50:15.935Z,5.56
2017-01-29T11:51:15.919Z,5.66
2017-01-29T11:52:15.910Z,5.67
2017-01-29T11:53:15.884Z,5.47
2017-01-29T11:54:15.888Z,5.29
2017-01-29T11:55:15.902Z,5.44
2017-01-29T11:56:15.848Z,5.38
2017-01-29T11:57:15.837Z,5.55
2017-01-29T11:58:15.458Z,5.44
2017-01-29T11:59:15.830Z,5.51
2017-01-29T12:00:15.415Z,5.62
2017-01-29T12:01:15.794Z,5.35
2017-01-29T12:02:15.786Z,5.17
2017-01-29T12:03:15.784Z,4.77
2017-01-29T12:04:15.363Z,4.79
2017-01-29T12:05:15.745Z,4.83
2017-01-29T12:06:15.728Z,4.68
2017-01-29T12:07:15.332Z,4.61
2017-01-29T12:08:15.694Z,4.38
2017-01-29T12:09:15.322Z,4.44
2017-01-29T12:10:15.695Z,4.35
2017-01-29T12:11:15.670Z,4.29
2017-01-29T12:12:15.658Z,4.39
2017-01-29T12:13:15.645Z,4.32
2017-01-29T12:14:15.651Z,4.36
2017-01-29T12:15:15.622Z,4.34
2017-01-29T12:16:15.596Z,4.53
2017-01-29T12:17:15.593Z,4.42
2017-01-29T12:18:15.590Z,4.36
2017-01-29T12:19:15.576Z,4.26
2017-01-29T12:20:15.165Z,4.1
2017-01-29T12:21:15.540Z,4.02
2017-01-29T12:22:15.523Z,3.28
2017-01-29T12:23:15.128Z,3.35
2017-01-29T12:24:15.511Z,3.71
2017-01-29T12:25:15.094Z,3.77
2017-01-29T12:26:15.078Z,3.64
2017-01-29T12:27:15.462Z,3.37
2017-01-29T12:28:15.072Z,3.33
2017-01-29T12:29:15.054Z,3.35
2017-01-29T12:30:15.437Z,3.26
2017-01-29T12:31:15.015Z,3.23
2017-01-29T12:32:15.012Z,3.28
2017-01-29T12:33:14.999Z,3.15
2017-01-29T12:34:15.370Z,3.02
2017-01-29T12:35:15.355Z,2.94
2017-01-29T12:36:15.347Z,2.99
2017-01-29T12:37:15.345Z,3.3
2017-01-29T12:38:15.339Z,3.7
2017-01-29T12:39:15.309Z,3.41
2017-01-29T12:40:15.293Z,3.15
2017-01-29T12:41:15.271Z,2.95
2017-01-29T12:42:14.875Z,2.94
2017-01-29T12:43:15.261Z,2.89
2017-01-29T12:44:15.232Z,3.17
2017-01-29T12:45:15.215Z,3.42
2017-01-29T12:46:15.222Z,3.67
2017-01-29T12:47:15.211Z,3.57
2017-01-29T12:48:15.188Z,3.57
2017-01-29T12:49:14.814Z,3.54
2017-01-29T12:50:14.770Z,3.56
2017-01-29T12:51:15.140Z,3.72
2017-01-29T12:52:14.736Z,3.67
2017-01-29T12:53:15.148Z,3.77
2017-01-29T12:54:14.713Z,4.06
2017-01-29T12:55:14.717Z,4.17
2017-01-29T12:56:15.072Z,4.13
2017-01-29T12:57:14.679Z,3.95
2017-01-29T12:58:14.664Z,3.67
2017-01-29T12:59:15.052Z,3.8
2017-01-29T13:00:15.016Z,3.01
2017-01-29T13:01:15.027Z,2.99
2017-01-29T13:02:14.602Z,3.44
2017-01-29T13:03:14.994Z,3.53
2017-01-29T13:04:14.587Z,3.26
2017-01-29T13:05:14.944Z,3.7